sensor_id;sensor_type;location;lat;lon;timestamp;P1;durP1;ratioP1;P2;durP2;ratioP2
47161;SDS011;32921;53.256;8.198;2023-11-21T00:02:24;666.65;;;608.10;;
47161;SDS011;32921;53.256;8.198;2023-11-21T00:04:50;651.92;;;595.28;;
47161;SDS011;32921;53.256;8.198;2023-11-21T00:07:16;686.08;;;626.28;;
47161;SDS011;32921;53.256;8.198;2023-11-21T00:09:41;619.05;;;564.00;;
47161;SDS011;32921;53.256;8.198;2023-11-21T00:12:08;675.88;;;616.33;;
47161;SDS011;32921;53.256;8.198;2023-11-21T00:14:37;657.72;;;599.92;;
47161;SDS011;32921;53.256;8.198;2023-11-21T00:17:03;689.70;;;628.65;;
47161;SDS011;32921;53.256;8.198;2023-11-21T00:19:30;660.97;;;601.67;;
47161;SDS011;32921;53.256;8.198;2023-11-21T00:21:55;679.78;;;618.38;;
47161;SDS011;32921;53.256;8.198;2023-11-21T00:24:23;634.63;;;578.15;;
47161;SDS011;32921;53.256;8.198;2023-11-21T00:26:49;682.30;;;620.13;;
47161;SDS011;32921;53.256;8.198;2023-11-21T00:29:15;617.38;;;561.47;;
47161;SDS011;32921;53.256;8.198;2023-11-21T00:31:42;649.65;;;591.53;;
47161;SDS011;32921;53.256;8.198;2023-11-21T00:34:09;680.03;;;619.17;;
47161;SDS011;32921;53.256;8.198;2023-11-21T00:36:34;678.28;;;617.70;;
47161;SDS011;32921;53.256;8.198;2023-11-21T00:39:00;642.65;;;585.55;;
47161;SDS011;32921;53.256;8.198;2023-11-21T00:41:28;652.88;;;593.60;;
47161;SDS011;32921;53.256;8.198;2023-11-21T00:43:54;679.45;;;619.15;;
47161;SDS011;32921;53.256;8.198;2023-11-21T00:46:20;677.53;;;616.42;;
47161;SDS011;32921;53.256;8.198;2023-11-21T00:48:46;694.25;;;632.75;;
47161;SDS011;32921;53.256;8.198;2023-11-21T00:51:11;701.38;;;641.17;;
47161;SDS011;32921;53.256;8.198;2023-11-21T00:53:37;675.78;;;617.78;;
47161;SDS011;32921;53.256;8.198;2023-11-21T00:56:03;679.60;;;620.42;;
47161;SDS011;32921;53.256;8.198;2023-11-21T00:58:28;680.50;;;623.13;;
47161;SDS011;32921;53.256;8.198;2023-11-21T01:00:55;684.08;;;626.03;;
47161;SDS011;32921;53.256;8.198;2023-11-21T01:03:21;664.67;;;606.90;;
47161;SDS011;32921;53.256;8.198;2023-11-21T01:05:46;683.70;;;623.13;;
47161;SDS011;32921;53.256;8.198;2023-11-21T01:08:14;644.80;;;588.42;;
47161;SDS011;32921;53.256;8.198;2023-11-21T01:10:40;693.97;;;633.72;;
47161;SDS011;32921;53.256;8.198;2023-11-21T01:13:05;678.97;;;617.75;;
47161;SDS011;32921;53.256;8.198;2023-11-21T01:15:32;626.15;;;569.00;;
47161;SDS011;32921;53.256;8.198;2023-11-21T01:17:58;677.35;;;615.85;;
47161;SDS011;32921;53.256;8.198;2023-11-21T01:20:23;647.50;;;586.35;;
47161;SDS011;32921;53.256;8.198;2023-11-21T01:22:49;673.55;;;611.05;;
47161;SDS011;32921;53.256;8.198;2023-11-21T01:25:15;629.72;;;570.47;;
47161;SDS011;32921;53.256;8.198;2023-11-21T01:27:41;622.42;;;563.00;;
47161;SDS011;32921;53.256;8.198;2023-11-21T01:30:07;582.42;;;527.20;;
47161;SDS011;32921;53.256;8.198;2023-11-21T01:32:35;607.58;;;548.92;;
47161;SDS011;32921;53.256;8.198;2023-11-21T01:35:01;553.95;;;497.63;;
47161;SDS011;32921;53.256;8.198;2023-11-21T01:37:27;556.55;;;500.02;;
47161;SDS011;32921;53.256;8.198;2023-11-21T01:39:53;568.30;;;512.53;;
47161;SDS011;32921;53.256;8.198;2023-11-21T01:42:22;582.42;;;525.70;;
47161;SDS011;32921;53.256;8.198;2023-11-21T01:44:48;611.03;;;552.50;;
47161;SDS011;32921;53.256;8.198;2023-11-21T01:47:14;598.58;;;539.25;;
47161;SDS011;32921;53.256;8.198;2023-11-21T01:49:42;644.15;;;583.05;;
47161;SDS011;32921;53.256;8.198;2023-11-21T01:52:10;623.72;;;564.80;;
47161;SDS011;32921;53.256;8.198;2023-11-21T01:54:36;628.78;;;568.78;;
47161;SDS011;32921;53.256;8.198;2023-11-21T01:57:02;664.20;;;602.75;;
47161;SDS011;32921;53.256;8.198;2023-11-21T01:59:34;647.03;;;587.45;;
47161;SDS011;32921;53.256;8.198;2023-11-21T02:02:04;661.05;;;600.30;;
47161;SDS011;32921;53.256;8.198;2023-11-21T02:04:31;706.22;;;639.33;;
47161;SDS011;32921;53.256;8.198;2023-11-21T02:06:57;644.28;;;582.72;;
47161;SDS011;32921;53.256;8.198;2023-11-21T02:09:27;706.10;;;637.63;;
47161;SDS011;32921;53.256;8.198;2023-11-21T02:11:55;709.35;;;646.50;;
47161;SDS011;32921;53.256;8.198;2023-11-21T02:14:21;747.45;;;680.50;;
47161;SDS011;32921;53.256;8.198;2023-11-21T02:16:50;758.50;;;688.58;;
47161;SDS011;32921;53.256;8.198;2023-11-21T02:19:19;709.55;;;646.08;;
47161;SDS011;32921;53.256;8.198;2023-11-21T02:21:49;725.17;;;660.47;;
47161;SDS011;32921;53.256;8.198;2023-11-21T02:24:16;733.97;;;667.28;;
47161;SDS011;32921;53.256;8.198;2023-11-21T02:26:48;732.92;;;665.88;;
47161;SDS011;32921;53.256;8.198;2023-11-21T02:29:16;735.63;;;669.92;;
47161;SDS011;32921;53.256;8.198;2023-11-21T02:31:47;699.83;;;637.90;;
47161;SDS011;32921;53.256;8.198;2023-11-21T02:34:17;742.95;;;675.10;;
47161;SDS011;32921;53.256;8.198;2023-11-21T02:36:43;742.67;;;675.47;;
47161;SDS011;32921;53.256;8.198;2023-11-21T02:39:12;749.67;;;679.70;;
47161;SDS011;32921;53.256;8.198;2023-11-21T02:41:38;765.22;;;693.83;;
47161;SDS011;32921;53.256;8.198;2023-11-21T02:44:04;713.42;;;648.47;;
47161;SDS011;32921;53.256;8.198;2023-11-21T02:46:31;745.60;;;678.38;;
47161;SDS011;32921;53.256;8.198;2023-11-21T02:48:58;757.85;;;688.45;;
47161;SDS011;32921;53.256;8.198;2023-11-21T02:51:24;759.00;;;690.33;;
47161;SDS011;32921;53.256;8.198;2023-11-21T02:53:50;718.33;;;650.92;;
47161;SDS011;32921;53.256;8.198;2023-11-21T02:56:16;734.47;;;666.67;;
47161;SDS011;32921;53.256;8.198;2023-11-21T02:58:42;725.13;;;657.30;;
47161;SDS011;32921;53.256;8.198;2023-11-21T03:01:10;664.40;;;603.47;;
47161;SDS011;32921;53.256;8.198;2023-11-21T03:03:38;657.92;;;597.22;;
47161;SDS011;32921;53.256;8.198;2023-11-21T03:06:05;704.25;;;643.15;;
47161;SDS011;32921;53.256;8.198;2023-11-21T03:08:31;706.00;;;646.00;;
47161;SDS011;32921;53.256;8.198;2023-11-21T03:10:57;736.95;;;673.50;;
47161;SDS011;32921;53.256;8.198;2023-11-21T03:13:23;704.97;;;645.40;;
47161;SDS011;32921;53.256;8.198;2023-11-21T03:15:49;669.88;;;612.63;;
47161;SDS011;32921;53.256;8.198;2023-11-21T03:18:14;691.53;;;632.58;;
47161;SDS011;32921;53.256;8.198;2023-11-21T03:20:40;642.17;;;584.65;;
47161;SDS011;32921;53.256;8.198;2023-11-21T03:23:06;606.60;;;548.80;;
47161;SDS011;32921;53.256;8.198;2023-11-21T03:25:32;541.92;;;487.50;;
47161;SDS011;32921;53.256;8.198;2023-11-21T03:27:57;585.45;;;524.90;;
47161;SDS011;32921;53.256;8.198;2023-11-21T03:30:23;560.00;;;499.65;;
47161;SDS011;32921;53.256;8.198;2023-11-21T03:32:48;583.40;;;493.65;;
47161;SDS011;32921;53.256;8.198;2023-11-21T03:35:14;563.55;;;503.33;;
47161;SDS011;32921;53.256;8.198;2023-11-21T03:37:39;552.83;;;493.50;;
47161;SDS011;32921;53.256;8.198;2023-11-21T03:40:06;671.80;;;604.33;;
47161;SDS011;32921;53.256;8.198;2023-11-21T03:42:34;692.10;;;622.50;;
47161;SDS011;32921;53.256;8.198;2023-11-21T03:44:59;733.50;;;662.83;;
47161;SDS011;32921;53.256;8.198;2023-11-21T03:47:26;781.63;;;706.22;;
47161;SDS011;32921;53.256;8.198;2023-11-21T03:49:53;761.30;;;689.47;;
47161;SDS011;32921;53.256;8.198;2023-11-21T03:52:18;817.97;;;739.45;;
47161;SDS011;32921;53.256;8.198;2023-11-21T03:54:44;835.28;;;754.13;;
47161;SDS011;32921;53.256;8.198;2023-11-21T03:57:09;853.40;;;770.28;;
47161;SDS011;32921;53.256;8.198;2023-11-21T03:59:36;892.22;;;803.85;;
47161;SDS011;32921;53.256;8.198;2023-11-21T04:02:06;903.33;;;811.40;;
47161;SDS011;32921;53.256;8.198;2023-11-21T04:04:32;894.50;;;803.55;;
47161;SDS011;32921;53.256;8.198;2023-11-21T04:06:58;892.22;;;801.72;;
47161;SDS011;32921;53.256;8.198;2023-11-21T04:09:24;875.33;;;787.85;;
47161;SDS011;32921;53.256;8.198;2023-11-21T04:11:50;914.28;;;819.15;;
47161;SDS011;32921;53.256;8.198;2023-11-21T04:14:16;943.30;;;846.15;;
47161;SDS011;32921;53.256;8.198;2023-11-21T04:16:41;925.67;;;829.58;;
47161;SDS011;32921;53.256;8.198;2023-11-21T04:19:07;933.50;;;837.72;;
47161;SDS011;32921;53.256;8.198;2023-11-21T04:21:35;935.75;;;836.75;;
47161;SDS011;32921;53.256;8.198;2023-11-21T04:24:03;947.70;;;846.53;;
47161;SDS011;32921;53.256;8.198;2023-11-21T04:26:30;941.47;;;840.13;;
47161;SDS011;32921;53.256;8.198;2023-11-21T04:28:55;954.13;;;848.88;;
47161;SDS011;32921;53.256;8.198;2023-11-21T04:31:21;945.08;;;845.78;;
47161;SDS011;32921;53.256;8.198;2023-11-21T04:33:46;954.42;;;852.63;;
47161;SDS011;32921;53.256;8.198;2023-11-21T04:36:12;917.35;;;820.90;;
47161;SDS011;32921;53.256;8.198;2023-11-21T04:38:38;968.80;;;865.83;;
47161;SDS011;32921;53.256;8.198;2023-11-21T04:41:03;943.03;;;843.30;;
47161;SDS011;32921;53.256;8.198;2023-11-21T04:43:29;948.60;;;847.67;;
47161;SDS011;32921;53.256;8.198;2023-11-21T04:45:55;937.75;;;840.13;;
47161;SDS011;32921;53.256;8.198;2023-11-21T04:48:20;952.22;;;849.25;;
47161;SDS011;32921;53.256;8.198;2023-11-21T04:50:46;928.53;;;831.15;;
47161;SDS011;32921;53.256;8.198;2023-11-21T04:53:11;899.42;;;804.33;;
47161;SDS011;32921;53.256;8.198;2023-11-21T04:55:39;938.28;;;840.40;;
47161;SDS011;32921;53.256;8.198;2023-11-21T04:58:05;898.58;;;806.78;;
47161;SDS011;32921;53.256;8.198;2023-11-21T05:00:31;934.53;;;836.70;;
47161;SDS011;32921;53.256;8.198;2023-11-21T05:02:56;935.30;;;836.03;;
47161;SDS011;32921;53.256;8.198;2023-11-21T05:05:22;916.83;;;821.05;;
47161;SDS011;32921;53.256;8.198;2023-11-21T05:07:49;925.03;;;829.00;;
47161;SDS011;32921;53.256;8.198;2023-11-21T05:10:14;918.55;;;821.38;;
47161;SDS011;32921;53.256;8.198;2023-11-21T05:12:41;951.30;;;852.70;;
47161;SDS011;32921;53.256;8.198;2023-11-21T05:15:07;936.50;;;839.85;;
47161;SDS011;32921;53.256;8.198;2023-11-21T05:17:34;942.17;;;845.50;;
47161;SDS011;32921;53.256;8.198;2023-11-21T05:20:01;941.55;;;842.97;;
47161;SDS011;32921;53.256;8.198;2023-11-21T05:22:29;924.50;;;828.15;;
47161;SDS011;32921;53.256;8.198;2023-11-21T05:24:55;910.10;;;817.05;;
47161;SDS011;32921;53.256;8.198;2023-11-21T05:27:20;893.30;;;800.28;;
47161;SDS011;32921;53.256;8.198;2023-11-21T05:29:46;917.53;;;822.10;;
47161;SDS011;32921;53.256;8.198;2023-11-21T05:32:11;943.58;;;845.28;;
47161;SDS011;32921;53.256;8.198;2023-11-21T05:34:37;896.92;;;806.05;;
47161;SDS011;32921;53.256;8.198;2023-11-21T05:37:03;888.92;;;798.90;;
47161;SDS011;32921;53.256;8.198;2023-11-21T05:39:30;943.08;;;845.70;;
47161;SDS011;32921;53.256;8.198;2023-11-21T05:41:55;940.65;;;842.13;;
47161;SDS011;32921;53.256;8.198;2023-11-21T05:44:22;893.08;;;800.80;;
47161;SDS011;32921;53.256;8.198;2023-11-21T05:46:50;931.80;;;835.33;;
47161;SDS011;32921;53.256;8.198;2023-11-21T05:49:15;937.72;;;840.22;;
47161;SDS011;32921;53.256;8.198;2023-11-21T05:51:41;883.95;;;792.55;;
47161;SDS011;32921;53.256;8.198;2023-11-21T05:54:07;868.17;;;780.78;;
47161;SDS011;32921;53.256;8.198;2023-11-21T05:56:33;904.38;;;812.83;;
47161;SDS011;32921;53.256;8.198;2023-11-21T05:58:58;908.83;;;816.50;;
47161;SDS011;32921;53.256;8.198;2023-11-21T06:01:24;868.83;;;782.95;;
47161;SDS011;32921;53.256;8.198;2023-11-21T06:03:53;914.28;;;821.03;;
47161;SDS011;32921;53.256;8.198;2023-11-21T06:06:20;926.03;;;829.85;;
47161;SDS011;32921;53.256;8.198;2023-11-21T06:08:47;945.42;;;847.60;;
47161;SDS011;32921;53.256;8.198;2023-11-21T06:11:13;894.78;;;805.65;;
47161;SDS011;32921;53.256;8.198;2023-11-21T06:13:39;904.78;;;813.85;;
47161;SDS011;32921;53.256;8.198;2023-11-21T06:16:05;889.90;;;800.90;;
47161;SDS011;32921;53.256;8.198;2023-11-21T06:18:31;877.53;;;789.05;;
47161;SDS011;32921;53.256;8.198;2023-11-21T06:20:56;918.13;;;825.85;;
47161;SDS011;32921;53.256;8.198;2023-11-21T06:23:22;908.50;;;818.13;;
47161;SDS011;32921;53.256;8.198;2023-11-21T06:25:47;920.00;;;828.55;;
47161;SDS011;32921;53.256;8.198;2023-11-21T06:28:13;907.00;;;815.92;;
47161;SDS011;32921;53.256;8.198;2023-11-21T06:30:42;892.85;;;803.17;;
47161;SDS011;32921;53.256;8.198;2023-11-21T06:33:09;884.35;;;796.08;;
47161;SDS011;32921;53.256;8.198;2023-11-21T06:35:35;920.10;;;829.25;;
47161;SDS011;32921;53.256;8.198;2023-11-21T06:38:01;870.45;;;785.95;;
47161;SDS011;32921;53.256;8.198;2023-11-21T06:40:27;851.42;;;769.28;;
47161;SDS011;32921;53.256;8.198;2023-11-21T06:42:53;851.75;;;768.65;;
47161;SDS011;32921;53.256;8.198;2023-11-21T06:45:18;790.25;;;715.38;;
47161;SDS011;32921;53.256;8.198;2023-11-21T06:47:45;766.97;;;694.47;;
47161;SDS011;32921;53.256;8.198;2023-11-21T06:50:11;807.10;;;731.83;;
47161;SDS011;32921;53.256;8.198;2023-11-21T06:52:37;769.63;;;696.70;;
47161;SDS011;32921;53.256;8.198;2023-11-21T06:55:03;799.30;;;724.00;;
47161;SDS011;32921;53.256;8.198;2023-11-21T06:57:29;775.40;;;701.97;;
47161;SDS011;32921;53.256;8.198;2023-11-21T06:59:56;765.92;;;693.15;;
47161;SDS011;32921;53.256;8.198;2023-11-21T07:02:22;777.92;;;704.42;;
47161;SDS011;32921;53.256;8.198;2023-11-21T07:04:48;772.50;;;698.75;;
47161;SDS011;32921;53.256;8.198;2023-11-21T07:07:13;763.28;;;691.47;;
47161;SDS011;32921;53.256;8.198;2023-11-21T07:09:39;727.70;;;660.13;;
47161;SDS011;32921;53.256;8.198;2023-11-21T07:12:05;681.17;;;617.83;;
47161;SDS011;32921;53.256;8.198;2023-11-21T07:14:32;718.53;;;652.35;;
47161;SDS011;32921;53.256;8.198;2023-11-21T07:16:58;711.70;;;647.78;;
47161;SDS011;32921;53.256;8.198;2023-11-21T07:19:24;709.90;;;647.95;;
47161;SDS011;32921;53.256;8.198;2023-11-21T07:21:50;779.17;;;711.03;;
47161;SDS011;32921;53.256;8.198;2023-11-21T07:24:16;761.58;;;697.35;;
47161;SDS011;32921;53.256;8.198;2023-11-21T07:26:41;743.53;;;680.05;;
47161;SDS011;32921;53.256;8.198;2023-11-21T07:29:08;735.00;;;674.53;;
47161;SDS011;32921;53.256;8.198;2023-11-21T07:31:33;752.47;;;689.63;;
47161;SDS011;32921;53.256;8.198;2023-11-21T07:33:59;764.88;;;700.63;;
47161;SDS011;32921;53.256;8.198;2023-11-21T07:36:25;713.40;;;654.65;;
47161;SDS011;32921;53.256;8.198;2023-11-21T07:38:52;709.40;;;651.53;;
47161;SDS011;32921;53.256;8.198;2023-11-21T07:41:18;714.00;;;656.65;;
47161;SDS011;32921;53.256;8.198;2023-11-21T07:43:44;725.33;;;667.25;;
47161;SDS011;32921;53.256;8.198;2023-11-21T07:46:10;699.13;;;643.85;;
47161;SDS011;32921;53.256;8.198;2023-11-21T07:48:37;659.65;;;607.42;;
47161;SDS011;32921;53.256;8.198;2023-11-21T07:51:04;666.47;;;613.78;;
47161;SDS011;32921;53.256;8.198;2023-11-21T07:53:30;609.72;;;561.08;;
47161;SDS011;32921;53.256;8.198;2023-11-21T07:55:56;545.90;;;501.90;;
47161;SDS011;32921;53.256;8.198;2023-11-21T07:58:22;502.25;;;461.48;;
47161;SDS011;32921;53.256;8.198;2023-11-21T08:00:49;432.77;;;397.33;;
47161;SDS011;32921;53.256;8.198;2023-11-21T08:03:15;417.05;;;379.05;;
47161;SDS011;32921;53.256;8.198;2023-11-21T08:05:41;361.33;;;328.08;;
47161;SDS011;32921;53.256;8.198;2023-11-21T08:08:07;308.67;;;280.42;;
47161;SDS011;32921;53.256;8.198;2023-11-21T08:10:32;212.25;;;191.90;;
47161;SDS011;32921;53.256;8.198;2023-11-21T08:12:58;190.93;;;174.10;;
47161;SDS011;32921;53.256;8.198;2023-11-21T08:15:24;179.45;;;164.02;;
47161;SDS011;32921;53.256;8.198;2023-11-21T08:17:50;194.02;;;178.02;;
47161;SDS011;32921;53.256;8.198;2023-11-21T08:20:15;202.02;;;184.35;;
47161;SDS011;32921;53.256;8.198;2023-11-21T08:22:41;201.70;;;185.32;;
47161;SDS011;32921;53.256;8.198;2023-11-21T08:25:07;277.38;;;254.25;;
47161;SDS011;32921;53.256;8.198;2023-11-21T08:27:34;262.33;;;241.90;;
47161;SDS011;32921;53.256;8.198;2023-11-21T08:30:03;282.58;;;261.80;;
47161;SDS011;32921;53.256;8.198;2023-11-21T08:32:29;330.60;;;305.77;;
47161;SDS011;32921;53.256;8.198;2023-11-21T08:34:57;396.63;;;366.88;;
47161;SDS011;32921;53.256;8.198;2023-11-21T08:37:23;410.40;;;379.83;;
47161;SDS011;32921;53.256;8.198;2023-11-21T08:39:49;600.75;;;555.85;;
47161;SDS011;32921;53.256;8.198;2023-11-21T08:42:14;577.38;;;534.30;;
47161;SDS011;32921;53.256;8.198;2023-11-21T08:44:40;671.28;;;620.15;;
47161;SDS011;32921;53.256;8.198;2023-11-21T08:47:06;692.15;;;639.45;;
47161;SDS011;32921;53.256;8.198;2023-11-21T08:49:32;730.05;;;673.03;;
47161;SDS011;32921;53.256;8.198;2023-11-21T08:51:57;776.97;;;715.40;;
47161;SDS011;32921;53.256;8.198;2023-11-21T08:54:24;786.40;;;723.10;;
47161;SDS011;32921;53.256;8.198;2023-11-21T08:56:51;853.03;;;781.72;;
47161;SDS011;32921;53.256;8.198;2023-11-21T08:59:18;851.33;;;779.30;;
47161;SDS011;32921;53.256;8.198;2023-11-21T09:01:45;920.70;;;837.17;;
47161;SDS011;32921;53.256;8.198;2023-11-21T09:04:11;877.17;;;801.22;;
47161;SDS011;32921;53.256;8.198;2023-11-21T09:06:37;884.72;;;806.85;;
47161;SDS011;32921;53.256;8.198;2023-11-21T09:09:04;892.15;;;811.97;;
47161;SDS011;32921;53.256;8.198;2023-11-21T09:11:31;905.25;;;824.60;;
47161;SDS011;32921;53.256;8.198;2023-11-21T09:14:00;911.97;;;830.08;;
47161;SDS011;32921;53.256;8.198;2023-11-21T09:16:26;912.05;;;830.38;;
47161;SDS011;32921;53.256;8.198;2023-11-21T09:18:52;908.80;;;824.65;;
47161;SDS011;32921;53.256;8.198;2023-11-21T09:21:17;890.88;;;809.53;;
47161;SDS011;32921;53.256;8.198;2023-11-21T09:23:46;905.78;;;821.67;;
47161;SDS011;32921;53.256;8.198;2023-11-21T09:26:13;915.13;;;828.95;;
47161;SDS011;32921;53.256;8.198;2023-11-21T09:28:41;895.28;;;810.38;;
47161;SDS011;32921;53.256;8.198;2023-11-21T09:31:11;891.72;;;807.88;;
47161;SDS011;32921;53.256;8.198;2023-11-21T09:33:36;903.10;;;815.55;;
47161;SDS011;32921;53.256;8.198;2023-11-21T09:36:03;905.05;;;817.83;;
47161;SDS011;32921;53.256;8.198;2023-11-21T09:38:30;908.47;;;819.13;;
47161;SDS011;32921;53.256;8.198;2023-11-21T09:40:55;863.33;;;775.53;;
47161;SDS011;32921;53.256;8.198;2023-11-21T09:43:23;825.55;;;741.72;;
47161;SDS011;32921;53.256;8.198;2023-11-21T09:45:54;929.75;;;832.72;;
47161;SDS011;32921;53.256;8.198;2023-11-21T09:48:24;938.80;;;840.83;;
47161;SDS011;32921;53.256;8.198;2023-11-21T09:50:51;840.70;;;752.22;;
47161;SDS011;32921;53.256;8.198;2023-11-21T09:53:19;775.60;;;695.47;;
47161;SDS011;32921;53.256;8.198;2023-11-21T09:55:52;835.40;;;749.35;;
47161;SDS011;32921;53.256;8.198;2023-11-21T09:58:18;812.67;;;727.17;;
47161;SDS011;32921;53.256;8.198;2023-11-21T10:00:47;749.25;;;670.25;;
47161;SDS011;32921;53.256;8.198;2023-11-21T10:03:13;785.75;;;705.75;;
47161;SDS011;32921;53.256;8.198;2023-11-21T10:05:40;753.85;;;680.35;;
47161;SDS011;32921;53.256;8.198;2023-11-21T10:08:11;753.55;;;682.38;;
47161;SDS011;32921;53.256;8.198;2023-11-21T10:10:38;778.60;;;703.15;;
47161;SDS011;32921;53.256;8.198;2023-11-21T10:13:10;753.45;;;684.78;;
47161;SDS011;32921;53.256;8.198;2023-11-21T10:15:37;822.58;;;742.47;;
47161;SDS011;32921;53.256;8.198;2023-11-21T10:18:03;809.63;;;732.28;;
47161;SDS011;32921;53.256;8.198;2023-11-21T10:20:31;725.45;;;658.20;;
47161;SDS011;32921;53.256;8.198;2023-11-21T10:22:58;790.10;;;715.13;;
47161;SDS011;32921;53.256;8.198;2023-11-21T10:25:26;687.50;;;626.97;;
47161;SDS011;32921;53.256;8.198;2023-11-21T10:27:56;742.22;;;674.25;;
47161;SDS011;32921;53.256;8.198;2023-11-21T10:30:27;699.25;;;638.75;;
47161;SDS011;32921;53.256;8.198;2023-11-21T10:33:01;777.65;;;706.35;;
47161;SDS011;32921;53.256;8.198;2023-11-21T10:35:38;761.33;;;690.90;;
47161;SDS011;32921;53.256;8.198;2023-11-21T10:38:05;803.45;;;725.22;;
47161;SDS011;32921;53.256;8.198;2023-11-21T10:40:30;846.65;;;764.42;;
47161;SDS011;32921;53.256;8.198;2023-11-21T10:43:05;798.42;;;724.83;;
47161;SDS011;32921;53.256;8.198;2023-11-21T10:45:33;747.17;;;682.38;;
47161;SDS011;32921;53.256;8.198;2023-11-21T10:47:59;776.53;;;706.85;;
47161;SDS011;32921;53.256;8.198;2023-11-21T10:50:25;719.83;;;656.42;;
47161;SDS011;32921;53.256;8.198;2023-11-21T10:52:51;778.03;;;710.60;;
47161;SDS011;32921;53.256;8.198;2023-11-21T10:55:17;693.70;;;635.83;;
47161;SDS011;32921;53.256;8.198;2023-11-21T10:57:48;704.08;;;644.28;;
47161;SDS011;32921;53.256;8.198;2023-11-21T11:00:16;761.22;;;695.08;;
47161;SDS011;32921;53.256;8.198;2023-11-21T11:02:45;721.25;;;658.35;;
47161;SDS011;32921;53.256;8.198;2023-11-21T11:05:15;639.17;;;586.08;;
47161;SDS011;32921;53.256;8.198;2023-11-21T11:07:44;680.70;;;623.15;;
47161;SDS011;32921;53.256;8.198;2023-11-21T11:10:12;699.90;;;637.45;;
47161;SDS011;32921;53.256;8.198;2023-11-21T11:12:39;709.80;;;643.63;;
47161;SDS011;32921;53.256;8.198;2023-11-21T11:15:06;692.03;;;629.90;;
47161;SDS011;32921;53.256;8.198;2023-11-21T11:17:34;682.80;;;617.25;;
47161;SDS011;32921;53.256;8.198;2023-11-21T11:20:03;683.25;;;619.88;;
47161;SDS011;32921;53.256;8.198;2023-11-21T11:22:36;730.87;;;663.17;;
47161;SDS011;32921;53.256;8.198;2023-11-21T11:25:24;690.28;;;625.10;;
47161;SDS011;32921;53.256;8.198;2023-11-21T11:28:04;589.33;;;536.10;;
47161;SDS011;32921;53.256;8.198;2023-11-21T11:30:58;674.70;;;608.80;;
47161;SDS011;32921;53.256;8.198;2023-11-21T11:33:41;653.28;;;593.42;;
47161;SDS011;32921;53.256;8.198;2023-11-21T11:36:16;670.45;;;607.35;;
47161;SDS011;32921;53.256;8.198;2023-11-21T11:38:51;748.58;;;674.80;;
47161;SDS011;32921;53.256;8.198;2023-11-21T11:41:24;752.28;;;677.78;;
47161;SDS011;32921;53.256;8.198;2023-11-21T11:43:57;768.47;;;696.70;;
47161;SDS011;32921;53.256;8.198;2023-11-21T11:49:24;645.13;;;589.20;;
47161;SDS011;32921;53.256;8.198;2023-11-21T11:54:55;640.33;;;581.83;;
47161;SDS011;32921;53.256;8.198;2023-11-21T11:57:24;641.05;;;585.97;;
47161;SDS011;32921;53.256;8.198;2023-11-21T12:02:40;593.13;;;541.97;;
47161;SDS011;32921;53.256;8.198;2023-11-21T12:05:10;568.65;;;519.53;;
47161;SDS011;32921;53.256;8.198;2023-11-21T12:07:44;573.38;;;525.33;;
47161;SDS011;32921;53.256;8.198;2023-11-21T12:10:19;570.50;;;521.97;;
47161;SDS011;32921;53.256;8.198;2023-11-21T12:12:47;646.95;;;587.45;;
47161;SDS011;32921;53.256;8.198;2023-11-21T12:15:19;712.15;;;646.03;;
47161;SDS011;32921;53.256;8.198;2023-11-21T12:17:46;737.63;;;665.90;;
47161;SDS011;32921;53.256;8.198;2023-11-21T12:20:12;626.28;;;572.95;;
47161;SDS011;32921;53.256;8.198;2023-11-21T12:22:48;774.53;;;698.90;;
47161;SDS011;32921;53.256;8.198;2023-11-21T12:25:15;770.72;;;696.53;;
47161;SDS011;32921;53.256;8.198;2023-11-21T12:27:43;783.42;;;707.38;;
47161;SDS011;32921;53.256;8.198;2023-11-21T12:30:14;737.40;;;670.05;;
47161;SDS011;32921;53.256;8.198;2023-11-21T12:32:42;768.03;;;695.47;;
47161;SDS011;32921;53.256;8.198;2023-11-21T12:35:09;787.17;;;714.50;;
47161;SDS011;32921;53.256;8.198;2023-11-21T12:37:38;755.63;;;688.58;;
47161;SDS011;32921;53.256;8.198;2023-11-21T12:40:05;789.92;;;718.35;;
47161;SDS011;32921;53.256;8.198;2023-11-21T12:42:33;705.47;;;643.33;;
47161;SDS011;32921;53.256;8.198;2023-11-21T12:47:58;666.75;;;611.03;;
47161;SDS011;32921;53.256;8.198;2023-11-21T12:50:28;656.92;;;601.13;;
47161;SDS011;32921;53.256;8.198;2023-11-21T12:53:00;645.28;;;589.28;;
47161;SDS011;32921;53.256;8.198;2023-11-21T12:55:34;626.22;;;573.20;;
47161;SDS011;32921;53.256;8.198;2023-11-21T12:58:02;660.20;;;601.15;;
47161;SDS011;32921;53.256;8.198;2023-11-21T13:00:38;528.92;;;483.00;;
47161;SDS011;32921;53.256;8.198;2023-11-21T13:03:07;632.55;;;578.22;;
47161;SDS011;32921;53.256;8.198;2023-11-21T13:05:37;624.45;;;570.72;;
47161;SDS011;32921;53.256;8.198;2023-11-21T13:08:05;619.70;;;566.45;;
47161;SDS011;32921;53.256;8.198;2023-11-21T13:10:37;592.47;;;541.28;;
47161;SDS011;32921;53.256;8.198;2023-11-21T13:13:08;551.17;;;503.83;;
47161;SDS011;32921;53.256;8.198;2023-11-21T13:15:38;568.58;;;520.88;;
47161;SDS011;32921;53.256;8.198;2023-11-21T13:18:05;566.10;;;518.08;;
47161;SDS011;32921;53.256;8.198;2023-11-21T13:20:32;559.30;;;510.80;;
47161;SDS011;32921;53.256;8.198;2023-11-21T13:22:58;553.72;;;506.55;;
47161;SDS011;32921;53.256;8.198;2023-11-21T13:25:25;559.90;;;511.38;;
47161;SDS011;32921;53.256;8.198;2023-11-21T13:27:56;577.10;;;526.78;;
47161;SDS011;32921;53.256;8.198;2023-11-21T13:30:23;547.28;;;499.83;;
47161;SDS011;32921;53.256;8.198;2023-11-21T13:32:58;537.45;;;491.20;;
47161;SDS011;32921;53.256;8.198;2023-11-21T13:35:33;567.85;;;519.03;;
47161;SDS011;32921;53.256;8.198;2023-11-21T13:38:13;533.30;;;487.27;;
47161;SDS011;32921;53.256;8.198;2023-11-21T13:40:41;579.35;;;529.83;;
47161;SDS011;32921;53.256;8.198;2023-11-21T13:43:14;535.05;;;489.05;;
47161;SDS011;32921;53.256;8.198;2023-11-21T13:45:44;553.13;;;506.25;;
47161;SDS011;32921;53.256;8.198;2023-11-21T13:48:11;509.70;;;465.67;;
47161;SDS011;32921;53.256;8.198;2023-11-21T13:50:53;520.60;;;477.90;;
47161;SDS011;32921;53.256;8.198;2023-11-21T13:53:33;526.42;;;483.48;;
47161;SDS011;32921;53.256;8.198;2023-11-21T13:56:02;522.40;;;479.15;;
47161;SDS011;32921;53.256;8.198;2023-11-21T13:58:28;507.77;;;464.50;;
47161;SDS011;32921;53.256;8.198;2023-11-21T14:01:09;529.80;;;485.85;;
47161;SDS011;32921;53.256;8.198;2023-11-21T14:03:49;526.60;;;482.02;;
47161;SDS011;32921;53.256;8.198;2023-11-21T14:06:21;507.13;;;464.63;;
47161;SDS011;32921;53.256;8.198;2023-11-21T14:08:52;539.15;;;494.35;;
47161;SDS011;32921;53.256;8.198;2023-11-21T14:11:21;476.48;;;437.00;;